sensor_id;sensor_type;location;lat;lon;timestamp;pressure;altitude;pressure_sealevel;temperature;humidity
21290;BME280;10804;48.988;2.408;2023-07-31T00:00:43;100831.50;;;22.58;55.53
21290;BME280;10804;48.988;2.408;2023-07-31T00:03:12;100828.09;;;22.56;55.34
21290;BME280;10804;48.988;2.408;2023-07-31T00:05:39;100828.09;;;22.56;55.28
21290;BME280;10804;48.988;2.408;2023-07-31T00:08:07;100827.38;;;22.54;55.54
21290;BME280;10804;48.988;2.408;2023-07-31T00:10:34;100816.75;;;22.54;55.56
21290;BME280;10804;48.988;2.408;2023-07-31T00:13:01;100814.09;;;22.54;55.42
21290;BME280;10804;48.988;2.408;2023-07-31T00:15:30;100810.69;;;22.52;55.28
21290;BME280;10804;48.988;2.408;2023-07-31T00:17:57;100814.19;;;22.53;55.50
21290;BME280;10804;48.988;2.408;2023-07-31T00:20:24;100814.19;;;22.53;55.26
21290;BME280;10804;48.988;2.408;2023-07-31T00:22:52;100803.66;;;22.51;55.36
21290;BME280;10804;48.988;2.408;2023-07-31T00:25:19;100799.31;;;22.50;55.39
21290;BME280;10804;48.988;2.408;2023-07-31T00:27:46;100786.97;;;22.49;55.38
21290;BME280;10804;48.988;2.408;2023-07-31T00:30:14;100783.50;;;22.49;55.29
21290;BME280;10804;48.988;2.408;2023-07-31T00:32:43;100791.47;;;22.49;55.42
21290;BME280;10804;48.988;2.408;2023-07-31T00:35:11;100800.28;;;22.49;55.35
21290;BME280;10804;48.988;2.408;2023-07-31T00:37:38;100790.84;;;22.45;55.40
21290;BME280;10804;48.988;2.408;2023-07-31T00:40:06;100796.88;;;22.47;55.65
21290;BME280;10804;48.988;2.408;2023-07-31T00:42:34;100792.53;;;22.46;55.48
21290;BME280;10804;48.988;2.408;2023-07-31T00:45:02;100791.69;;;22.46;55.29
21290;BME280;10804;48.988;2.408;2023-07-31T00:47:30;100797.00;;;22.46;55.58
21290;BME280;10804;48.988;2.408;2023-07-31T00:49:59;100783.84;;;22.44;55.53
21290;BME280;10804;48.988;2.408;2023-07-31T00:52:26;100777.66;;;22.44;55.45
21290;BME280;10804;48.988;2.408;2023-07-31T00:54:56;100778.63;;;22.43;55.62
21290;BME280;10804;48.988;2.408;2023-07-31T00:57:23;100782.97;;;22.44;55.53
21290;BME280;10804;48.988;2.408;2023-07-31T00:59:51;100776.78;;;22.43;55.55
21290;BME280;10804;48.988;2.408;2023-07-31T01:02:18;100776.94;;;22.42;55.17
21290;BME280;10804;48.988;2.408;2023-07-31T01:04:46;100782.31;;;22.40;55.59
21290;BME280;10804;48.988;2.408;2023-07-31T01:07:20;100772.53;;;22.41;55.31
21290;BME280;10804;48.988;2.408;2023-07-31T01:09:55;100770.81;;;22.40;55.55
21290;BME280;10804;48.988;2.408;2023-07-31T01:12:27;100759.34;;;22.39;55.30
21290;BME280;10804;48.988;2.408;2023-07-31T01:15:02;100759.34;;;22.39;55.49
21290;BME280;10804;48.988;2.408;2023-07-31T01:17:30;100742.53;;;22.39;55.26
21290;BME280;10804;48.988;2.408;2023-07-31T01:20:02;100741.72;;;22.38;55.28
21290;BME280;10804;48.988;2.408;2023-07-31T01:25:42;100727.91;;;22.33;55.42
21290;BME280;10804;48.988;2.408;2023-07-31T01:28:13;100729.59;;;22.34;55.43
21290;BME280;10804;48.988;2.408;2023-07-31T01:30:43;100732.25;;;22.34;55.44
21290;BME280;10804;48.988;2.408;2023-07-31T01:33:11;100743.84;;;22.33;55.26
21290;BME280;10804;48.988;2.408;2023-07-31T01:35:39;100734.91;;;22.34;55.34
21290;BME280;10804;48.988;2.408;2023-07-31T01:38:06;100749.16;;;22.33;55.51
21290;BME280;10804;48.988;2.408;2023-07-31T01:40:34;100750.13;;;22.32;55.54
21290;BME280;10804;48.988;2.408;2023-07-31T01:43:03;100743.13;;;22.31;55.52
21290;BME280;10804;48.988;2.408;2023-07-31T01:45:31;100746.63;;;22.32;55.44
21290;BME280;10804;48.988;2.408;2023-07-31T01:47:58;100733.47;;;22.30;55.30
21290;BME280;10804;48.988;2.408;2023-07-31T01:50:25;100741.44;;;22.30;55.38
21290;BME280;10804;48.988;2.408;2023-07-31T01:52:52;100747.72;;;22.29;55.32
21290;BME280;10804;48.988;2.408;2023-07-31T01:55:20;100743.34;;;22.28;55.32
21290;BME280;10804;48.988;2.408;2023-07-31T01:57:47;100734.53;;;22.28;55.29
21290;BME280;10804;48.988;2.408;2023-07-31T02:00:17;100735.50;;;22.27;55.49
21290;BME280;10804;48.988;2.408;2023-07-31T02:02:44;100736.31;;;22.27;55.24
21290;BME280;10804;48.988;2.408;2023-07-31T02:05:11;100743.47;;;22.27;55.33
21290;BME280;10804;48.988;2.408;2023-07-31T02:07:38;100739.22;;;22.24;55.28
21290;BME280;10804;48.988;2.408;2023-07-31T02:10:06;100746.22;;;22.25;55.47
21290;BME280;10804;48.988;2.408;2023-07-31T02:12:35;100742.84;;;22.23;55.24
21290;BME280;10804;48.988;2.408;2023-07-31T02:15:03;100735.84;;;22.22;55.18
21290;BME280;10804;48.988;2.408;2023-07-31T02:17:32;100727.88;;;22.22;55.26
21290;BME280;10804;48.988;2.408;2023-07-31T02:20:00;100719.91;;;22.22;55.39
21290;BME280;10804;48.988;2.408;2023-07-31T02:22:28;100712.88;;;22.21;55.58
21290;BME280;10804;48.988;2.408;2023-07-31T02:24:56;100722.66;;;22.21;55.18
21290;BME280;10804;48.988;2.408;2023-07-31T02:27:23;100717.34;;;22.21;55.30
21290;BME280;10804;48.988;2.408;2023-07-31T02:29:53;100710.34;;;22.20;55.39
21290;BME280;10804;48.988;2.408;2023-07-31T02:32:21;100706.09;;;22.17;55.34
21290;BME280;10804;48.988;2.408;2023-07-31T02:34:50;100693.97;;;22.13;55.26
21290;BME280;10804;48.988;2.408;2023-07-31T02:37:17;100704.41;;;22.16;55.20
21290;BME280;10804;48.988;2.408;2023-07-31T02:39:46;100697.38;;;22.15;55.48
21290;BME280;10804;48.988;2.408;2023-07-31T02:42:14;100692.06;;;22.15;55.48
21290;BME280;10804;48.988;2.408;2023-07-31T02:44:41;100674.44;;;22.14;55.32
21290;BME280;10804;48.988;2.408;2023-07-31T02:47:09;100675.38;;;22.13;55.36
21290;BME280;10804;48.988;2.408;2023-07-31T02:49:36;100678.16;;;22.12;55.32
21290;BME280;10804;48.988;2.408;2023-07-31T02:52:05;100675.50;;;22.12;55.30
21290;BME280;10804;48.988;2.408;2023-07-31T02:54:33;100664.03;;;22.11;55.42
21290;BME280;10804;48.988;2.408;2023-07-31T02:57:00;100671.28;;;22.09;55.33
21290;BME280;10804;48.988;2.408;2023-07-31T02:59:28;100670.41;;;22.09;55.24
21290;BME280;10804;48.988;2.408;2023-07-31T03:01:55;100660.88;;;22.06;55.53
21290;BME280;10804;48.988;2.408;2023-07-31T03:04:23;100665.44;;;22.04;55.22
21290;BME280;10804;48.988;2.408;2023-07-31T03:06:50;100660.03;;;22.06;55.23
21290;BME280;10804;48.988;2.408;2023-07-31T03:09:18;100662.78;;;22.04;55.22
21290;BME280;10804;48.988;2.408;2023-07-31T03:11:46;100651.44;;;22.02;55.38
21290;BME280;10804;48.988;2.408;2023-07-31T03:14:13;100651.44;;;22.02;55.33
21290;BME280;10804;48.988;2.408;2023-07-31T03:16:40;100669.28;;;22.00;55.58
21290;BME280;10804;48.988;2.408;2023-07-31T03:19:08;100673.03;;;21.98;55.37
21290;BME280;10804;48.988;2.408;2023-07-31T03:21:35;100673.13;;;21.96;55.56
21290;BME280;10804;48.988;2.408;2023-07-31T03:24:03;100650.91;;;21.97;55.24
21290;BME280;10804;48.988;2.408;2023-07-31T03:26:32;100652.84;;;21.95;55.34
21290;BME280;10804;48.988;2.408;2023-07-31T03:29:00;100646.69;;;21.95;55.47
21290;BME280;10804;48.988;2.408;2023-07-31T03:31:27;100653.81;;;21.94;55.31
21290;BME280;10804;48.988;2.408;2023-07-31T03:33:54;100652.13;;;21.93;55.26
21290;BME280;10804;48.988;2.408;2023-07-31T03:36:22;100649.44;;;21.93;55.33
21290;BME280;10804;48.988;2.408;2023-07-31T03:38:50;100648.59;;;21.93;55.23
21290;BME280;10804;48.988;2.408;2023-07-31T03:41:18;100656.69;;;21.91;55.49
21290;BME280;10804;48.988;2.408;2023-07-31T03:43:51;100660.53;;;21.87;55.49
21290;BME280;10804;48.988;2.408;2023-07-31T03:46:19;100663.28;;;21.86;55.37
21290;BME280;10804;48.988;2.408;2023-07-31T03:48:48;100646.72;;;21.82;55.20
21290;BME280;10804;48.988;2.408;2023-07-31T03:51:16;100660.13;;;21.81;55.49
21290;BME280;10804;48.988;2.408;2023-07-31T03:53:44;100652.03;;;21.82;55.35
21290;BME280;10804;48.988;2.408;2023-07-31T03:56:11;100666.28;;;21.81;55.66
21290;BME280;10804;48.988;2.408;2023-07-31T03:58:39;100665.44;;;21.81;55.56
21290;BME280;10804;48.988;2.408;2023-07-31T04:01:08;100641.66;;;21.79;55.33
21290;BME280;10804;48.988;2.408;2023-07-31T04:03:35;100639.22;;;21.76;55.58
21290;BME280;10804;48.988;2.408;2023-07-31T04:06:03;100651.63;;;21.76;55.54
21290;BME280;10804;48.988;2.408;2023-07-31T04:08:30;100657.81;;;21.76;55.51
21290;BME280;10804;48.988;2.408;2023-07-31T04:10:57;100654.41;;;21.74;55.61
21290;BME280;10804;48.988;2.408;2023-07-31T04:13:25;100653.91;;;21.69;55.57
21290;BME280;10804;48.988;2.408;2023-07-31T04:15:53;100655.34;;;21.73;55.66
21290;BME280;10804;48.988;2.408;2023-07-31T04:18:24;100651.97;;;21.71;55.47
21290;BME280;10804;48.988;2.408;2023-07-31T04:20:51;100649.31;;;21.71;55.51
21290;BME280;10804;48.988;2.408;2023-07-31T04:23:19;100649.41;;;21.70;55.50
21290;BME280;10804;48.988;2.408;2023-07-31T04:25:46;100647.84;;;21.67;55.53
21290;BME280;10804;48.988;2.408;2023-07-31T04:28:13;100645.19;;;21.67;55.37
21290;BME280;10804;48.988;2.408;2023-07-31T04:30:41;100638.19;;;21.66;55.41
21290;BME280;10804;48.988;2.408;2023-07-31T04:33:08;100647.09;;;21.65;55.57
21290;BME280;10804;48.988;2.408;2023-07-31T04:35:37;100653.28;;;21.66;55.52
21290;BME280;10804;48.988;2.408;2023-07-31T04:38:04;100639.34;;;21.62;55.54
21290;BME280;10804;48.988;2.408;2023-07-31T04:40:31;100645.47;;;21.63;55.53
21290;BME280;10804;48.988;2.408;2023-07-31T04:42:59;100660.56;;;21.62;55.37
21290;BME280;10804;48.988;2.408;2023-07-31T04:45:26;100655.38;;;21.61;55.58
21290;BME280;10804;48.988;2.408;2023-07-31T04:47:53;100637.84;;;21.58;55.35
21290;BME280;10804;48.988;2.408;2023-07-31T04:50:20;100644.03;;;21.59;55.67
21290;BME280;10804;48.988;2.408;2023-07-31T04:52:49;100642.34;;;21.58;55.55
21290;BME280;10804;48.988;2.408;2023-07-31T04:55:16;100647.75;;;21.56;55.43
21290;BME280;10804;48.988;2.408;2023-07-31T04:57:44;100648.69;;;21.55;55.50
21290;BME280;10804;48.988;2.408;2023-07-31T05:00:11;100637.34;;;21.53;55.49
21290;BME280;10804;48.988;2.408;2023-07-31T05:02:39;100637.34;;;21.53;55.31
21290;BME280;10804;48.988;2.408;2023-07-31T05:05:07;100639.88;;;21.55;55.58
21290;BME280;10804;48.988;2.408;2023-07-31T05:07:34;100638.31;;;21.52;55.61
21290;BME280;10804;48.988;2.408;2023-07-31T05:10:03;100635.66;;;21.52;55.46
21290;BME280;10804;48.988;2.408;2023-07-31T05:12:31;100641.06;;;21.51;55.59
21290;BME280;10804;48.988;2.408;2023-07-31T05:14:58;100645.53;;;21.50;55.52
21290;BME280;10804;48.988;2.408;2023-07-31T05:17:25;100634.91;;;21.50;55.58
21290;BME280;10804;48.988;2.408;2023-07-31T05:19:53;100629.81;;;21.47;55.54
21290;BME280;10804;48.988;2.408;2023-07-31T05:22:20;100635.13;;;21.47;55.61
21290;BME280;10804;48.988;2.408;2023-07-31T05:24:47;100629.81;;;21.47;55.39
21290;BME280;10804;48.988;2.408;2023-07-31T05:27:16;100631.63;;;21.47;55.65
21290;BME280;10804;48.988;2.408;2023-07-31T05:29:44;100632.59;;;21.46;55.50
21290;BME280;10804;48.988;2.408;2023-07-31T05:32:12;100625.59;;;21.45;55.48
21290;BME280;10804;48.988;2.408;2023-07-31T05:34:39;100629.09;;;21.45;55.62
21290;BME280;10804;48.988;2.408;2023-07-31T05:37:06;100629.09;;;21.45;55.50
21290;BME280;10804;48.988;2.408;2023-07-31T05:39:33;100619.41;;;21.44;55.48
21290;BME280;10804;48.988;2.408;2023-07-31T05:42:01;100624.72;;;21.44;55.58
21290;BME280;10804;48.988;2.408;2023-07-31T05:44:29;100614.97;;;21.45;55.58
21290;BME280;10804;48.988;2.408;2023-07-31T05:46:57;100618.59;;;21.44;55.47
21290;BME280;10804;48.988;2.408;2023-07-31T05:49:24;100614.09;;;21.44;55.49
21290;BME280;10804;48.988;2.408;2023-07-31T05:51:51;100606.16;;;21.44;55.54
21290;BME280;10804;48.988;2.408;2023-07-31T05:54:19;100600.84;;;21.44;55.53
21290;BME280;10804;48.988;2.408;2023-07-31T05:56:46;100592.03;;;21.44;55.56
21290;BME280;10804;48.988;2.408;2023-07-31T05:59:13;100590.34;;;21.43;55.65
21290;BME280;10804;48.988;2.408;2023-07-31T06:01:42;100584.09;;;21.44;55.63
21290;BME280;10804;48.988;2.408;2023-07-31T06:04:09;100594.69;;;21.44;55.46
21290;BME280;10804;48.988;2.408;2023-07-31T06:06:37;100575.41;;;21.42;55.52
21290;BME280;10804;48.988;2.408;2023-07-31T06:09:04;100580.56;;;21.43;55.57
21290;BME280;10804;48.988;2.408;2023-07-31T06:11:31;100566.47;;;21.43;55.70
21290;BME280;10804;48.988;2.408;2023-07-31T06:13:59;100581.44;;;21.44;55.62
21290;BME280;10804;48.988;2.408;2023-07-31T06:16:26;100572.63;;;21.43;55.55
21290;BME280;10804;48.988;2.408;2023-07-31T06:18:55;100572.50;;;21.45;55.67
21290;BME280;10804;48.988;2.408;2023-07-31T06:21:22;100578.69;;;21.45;55.46
21290;BME280;10804;48.988;2.408;2023-07-31T06:23:50;100585.78;;;21.45;55.77
21290;BME280;10804;48.988;2.408;2023-07-31T06:26:17;100587.56;;;21.44;55.75
21290;BME280;10804;48.988;2.408;2023-07-31T06:28:44;100592.88;;;21.44;55.74
21290;BME280;10804;48.988;2.408;2023-07-31T06:31:12;100594.59;;;21.45;55.77
21290;BME280;10804;48.988;2.408;2023-07-31T06:33:39;100584.91;;;21.44;55.58
21290;BME280;10804;48.988;2.408;2023-07-31T06:36:08;100596.28;;;21.46;55.70
21290;BME280;10804;48.988;2.408;2023-07-31T06:38:35;100598.94;;;21.46;55.66
21290;BME280;10804;48.988;2.408;2023-07-31T06:41:03;100574.09;;;21.47;55.64
21290;BME280;10804;48.988;2.408;2023-07-31T06:43:31;100590.03;;;21.47;55.79
21290;BME280;10804;48.988;2.408;2023-07-31T06:46:02;100574.00;;;21.49;55.76
21290;BME280;10804;48.988;2.408;2023-07-31T06:48:31;100588.00;;;21.51;55.83
21290;BME280;10804;48.988;2.408;2023-07-31T06:50:58;100594.25;;;21.50;55.67
21290;BME280;10804;48.988;2.408;2023-07-31T06:53:28;100600.41;;;21.50;55.80
21290;BME280;10804;48.988;2.408;2023-07-31T06:55:55;100589.91;;;21.49;55.81
21290;BME280;10804;48.988;2.408;2023-07-31T06:58:22;100596.69;;;21.53;55.78
21290;BME280;10804;48.988;2.408;2023-07-31T07:00:50;100586.94;;;21.53;55.63
21290;BME280;10804;48.988;2.408;2023-07-31T07:03:18;100590.31;;;21.55;55.68
21290;BME280;10804;48.988;2.408;2023-07-31T07:05:46;100585.00;;;21.55;55.69
21290;BME280;10804;48.988;2.408;2023-07-31T07:08:13;100587.75;;;21.54;55.81
21290;BME280;10804;48.988;2.408;2023-07-31T07:10:42;100582.25;;;21.57;55.64
21290;BME280;10804;48.988;2.408;2023-07-31T07:13:09;100583.06;;;21.57;55.76
21290;BME280;10804;48.988;2.408;2023-07-31T07:15:38;100577.75;;;21.57;55.64
21290;BME280;10804;48.988;2.408;2023-07-31T07:18:06;100573.31;;;21.58;55.81
21290;BME280;10804;48.988;2.408;2023-07-31T07:20:33;100553.38;;;21.52;55.74
21290;BME280;10804;48.988;2.408;2023-07-31T07:23:00;100576.69;;;21.60;55.81
21290;BME280;10804;48.988;2.408;2023-07-31T07:25:27;100574.03;;;21.60;55.68
21290;BME280;10804;48.988;2.408;2023-07-31T07:27:56;100574.78;;;21.62;55.80
21290;BME280;10804;48.988;2.408;2023-07-31T07:30:24;100576.59;;;21.61;55.75
21290;BME280;10804;48.988;2.408;2023-07-31T07:32:51;100579.25;;;21.61;55.72
21290;BME280;10804;48.988;2.408;2023-07-31T07:35:19;100574.78;;;21.62;55.82
21290;BME280;10804;48.988;2.408;2023-07-31T07:37:48;100572.00;;;21.63;55.84
21290;BME280;10804;48.988;2.408;2023-07-31T07:40:16;100561.41;;;21.63;55.76
21290;BME280;10804;48.988;2.408;2023-07-31T07:42:43;100581.66;;;21.64;55.77
21290;BME280;10804;48.988;2.408;2023-07-31T07:45:12;100576.28;;;21.66;55.77
21290;BME280;10804;48.988;2.408;2023-07-31T07:47:40;100571.81;;;21.66;55.61
21290;BME280;10804;48.988;2.408;2023-07-31T07:50:08;100572.66;;;21.67;55.84
21290;BME280;10804;48.988;2.408;2023-07-31T07:52:36;100568.19;;;21.67;55.80
21290;BME280;10804;48.988;2.408;2023-07-31T07:55:04;100566.28;;;21.69;55.78
21290;BME280;10804;48.988;2.408;2023-07-31T07:57:31;100574.25;;;21.69;55.90
21290;BME280;10804;48.988;2.408;2023-07-31T07:59:58;100576.78;;;21.71;55.68
21290;BME280;10804;48.988;2.408;2023-07-31T08:02:28;100585.59;;;21.71;55.97
21290;BME280;10804;48.988;2.408;2023-07-31T08:04:55;100578.50;;;21.72;55.76
21290;BME280;10804;48.988;2.408;2023-07-31T08:07:22;100580.19;;;21.73;55.86
21290;BME280;10804;48.988;2.408;2023-07-31T08:09:50;100560.75;;;21.72;55.75
21290;BME280;10804;48.988;2.408;2023-07-31T08:12:17;100569.44;;;21.74;55.69
21290;BME280;10804;48.988;2.408;2023-07-31T08:14:44;100569.44;;;21.74;55.87
21290;BME280;10804;48.988;2.408;2023-07-31T08:17:12;100563.19;;;21.75;55.96
21290;BME280;10804;48.988;2.408;2023-07-31T08:19:40;100562.22;;;21.76;55.87
21290;BME280;10804;48.988;2.408;2023-07-31T08:22:07;100564.75;;;21.78;55.79
21290;BME280;10804;48.988;2.408;2023-07-31T08:24:35;100562.09;;;21.78;55.71
21290;BME280;10804;48.988;2.408;2023-07-31T08:27:02;100556.69;;;21.79;55.86
21290;BME280;10804;48.988;2.408;2023-07-31T08:29:29;100560.91;;;21.82;55.66
21290;BME280;10804;48.988;2.408;2023-07-31T08:31:57;100558.25;;;21.82;55.70
21290;BME280;10804;48.988;2.408;2023-07-31T08:34:24;100556.34;;;21.84;55.93
21290;BME280;10804;48.988;2.408;2023-07-31T08:36:53;100549.22;;;21.84;55.80
21290;BME280;10804;48.988;2.408;2023-07-31T08:39:21;100535.81;;;21.86;55.65
21290;BME280;10804;48.988;2.408;2023-07-31T08:41:48;100538.38;;;21.87;55.80
21290;BME280;10804;48.988;2.408;2023-07-31T08:44:16;100543.56;;;21.89;55.98
21290;BME280;10804;48.988;2.408;2023-07-31T08:46:45;100541.75;;;21.89;55.95
21290;BME280;10804;48.988;2.408;2023-07-31T08:49:13;100535.47;;;21.90;55.85
21290;BME280;10804;48.988;2.408;2023-07-31T08:51:41;100536.22;;;21.92;55.97
21290;BME280;10804;48.988;2.408;2023-07-31T08:54:10;100535.25;;;21.93;55.73
21290;BME280;10804;48.988;2.408;2023-07-31T08:56:39;100518.34;;;21.94;55.72
21290;BME280;10804;48.988;2.408;2023-07-31T08:59:08;100526.06;;;21.97;55.93
21290;BME280;10804;48.988;2.408;2023-07-31T09:01:38;100524.63;;;21.93;55.82
21290;BME280;10804;48.988;2.408;2023-07-31T09:04:09;100537.44;;;21.99;55.77
21290;BME280;10804;48.988;2.408;2023-07-31T09:06:38;100539.97;;;22.01;55.92
21290;BME280;10804;48.988;2.408;2023-07-31T09:09:06;100536.34;;;22.02;55.78
21290;BME280;10804;48.988;2.408;2023-07-31T09:11:35;100538.06;;;22.03;55.90
21290;BME280;10804;48.988;2.408;2023-07-31T09:14:02;100544.22;;;22.03;55.74
21290;BME280;10804;48.988;2.408;2023-07-31T09:16:34;100549.31;;;22.06;55.88
21290;BME280;10804;48.988;2.408;2023-07-31T09:19:02;100541.34;;;22.06;55.82
21290;BME280;10804;48.988;2.408;2023-07-31T09:21:30;100537.72;;;22.07;55.88
21290;BME280;10804;48.988;2.408;2023-07-31T09:23:58;100534.00;;;22.10;55.80
21290;BME280;10804;48.988;2.408;2023-07-31T09:26:29;100537.38;;;22.12;55.78
21290;BME280;10804;48.988;2.408;2023-07-31T09:28:59;100538.19;;;22.12;56.01
21290;BME280;10804;48.988;2.408;2023-07-31T09:31:38;100550.50;;;22.13;55.82
21290;BME280;10804;48.988;2.408;2023-07-31T09:34:05;100552.22;;;22.14;55.75
21290;BME280;10804;48.988;2.408;2023-07-31T09:36:33;100560.06;;;22.16;55.73
21290;BME280;10804;48.988;2.408;2023-07-31T09:39:08;100537.00;;;22.16;55.68
21290;BME280;10804;48.988;2.408;2023-07-31T09:41:37;100523.63;;;22.18;55.74
21290;BME280;10804;48.988;2.408;2023-07-31T09:44:06;100536.78;;;22.19;55.67
21290;BME280;10804;48.988;2.408;2023-07-31T09:46:34;100540.28;;;22.20;55.86
21290;BME280;10804;48.988;2.408;2023-07-31T09:49:04;100542.84;;;22.21;55.94
21290;BME280;10804;48.988;2.408;2023-07-31T09:51:32;100549.84;;;22.22;56.03
21290;BME280;10804;48.988;2.408;2023-07-31T09:54:10;100535.59;;;22.23;55.86
21290;BME280;10804;48.988;2.408;2023-07-31T09:56:42;100534.63;;;22.24;55.85
21290;BME280;10804;48.988;2.408;2023-07-31T09:59:13;100522.31;;;22.23;55.81
21290;BME280;10804;48.988;2.408;2023-07-31T10:01:41;100513.38;;;22.24;55.81
21290;BME280;10804;48.988;2.408;2023-07-31T10:04:09;100502.84;;;22.23;56.10
21290;BME280;10804;48.988;2.408;2023-07-31T10:06:38;100509.00;;;22.23;55.89
21290;BME280;10804;48.988;2.408;2023-07-31T10:09:06;100512.63;;;22.22;55.99
21290;BME280;10804;48.988;2.408;2023-07-31T10:11:38;100512.63;;;22.22;55.95
21290;BME280;10804;48.988;2.408;2023-07-31T10:14:07;100505.63;;;22.21;55.99
21290;BME280;10804;48.988;2.408;2023-07-31T10:16:38;100502.13;;;22.21;56.24
21290;BME280;10804;48.988;2.408;2023-07-31T10:19:07;100506.56;;;22.20;55.99
21290;BME280;10804;48.988;2.408;2023-07-31T10:21:35;100512.84;;;22.19;56.02
21290;BME280;10804;48.988;2.408;2023-07-31T10:24:04;100522.66;;;22.19;56.32
21290;BME280;10804;48.988;2.408;2023-07-31T10:26:32;100497.16;;;22.16;56.29
21290;BME280;10804;48.988;2.408;2023-07-31T10:29:00;100485.69;;;22.16;56.16
21290;BME280;10804;48.988;2.408;2023-07-31T10:31:28;100483.16;;;22.14;56.28
21290;BME280;10804;48.988;2.408;2023-07-31T10:33:58;100482.41;;;22.12;56.07
21290;BME280;10804;48.988;2.408;2023-07-31T10:36:26;100496.66;;;22.11;56.22
21290;BME280;10804;48.988;2.408;2023-07-31T10:38:55;100489.66;;;22.10;56.42
21290;BME280;10804;48.988;2.408;2023-07-31T10:41:28;100481.69;;;22.10;56.31
21290;BME280;10804;48.988;2.408;2023-07-31T10:43:57;100485.31;;;22.09;56.11
21290;BME280;10804;48.988;2.408;2023-07-31T10:46:25;100488.94;;;22.08;56.39
21290;BME280;10804;48.988;2.408;2023-07-31T10:48:59;100481.94;;;22.07;56.22
21290;BME280;10804;48.988;2.408;2023-07-31T10:51:33;100489.91;;;22.07;56.42
21290;BME280;10804;48.988;2.408;2023-07-31T10:54:10;100483.72;;;22.07;56.22
21290;BME280;10804;48.988;2.408;2023-07-31T10:56:38;100497.88;;;22.07;56.15
21290;BME280;10804;48.988;2.408;2023-07-31T10:59:06;100485.56;;;22.06;56.18
21290;BME280;10804;48.988;2.408;2023-07-31T11:01:49;100476.84;;;22.04;56.56
21290;BME280;10804;48.988;2.408;2023-07-31T11:04:23;100483.00;;;22.05;56.43
21290;BME280;10804;48.988;2.408;2023-07-31T11:06:57;100491.94;;;22.04;56.43
21290;BME280;10804;48.988;2.408;2023-07-31T11:09:28;100485.78;;;22.03;56.63
21290;BME280;10804;48.988;2.408;2023-07-31T11:11:56;100476.84;;;22.04;56.53
21290;BME280;10804;48.988;2.408;2023-07-31T11:14:23;100475.16;;;22.03;56.64
21290;BME280;10804;48.988;2.408;2023-07-31T11:16:51;100467.19;;;22.03;56.52
21290;BME280;10804;48.988;2.408;2023-07-31T11:19:23;100464.53;;;22.03;56.69
21290;BME280;10804;48.988;2.408;2023-07-31T11:21:51;100475.16;;;22.03;56.88
21290;BME280;10804;48.988;2.408;2023-07-31T11:24:19;100475.03;;;22.05;56.64
21290;BME280;10804;48.988;2.408;2023-07-31T11:26:50;100467.91;;;22.05;56.73
21290;BME280;10804;48.988;2.408;2023-07-31T11:29:18;100468.88;;;22.04;56.65
21290;BME280;10804;48.988;2.408;2023-07-31T11:31:47;100467.06;;;22.05;56.77
21290;BME280;10804;48.988;2.408;2023-07-31T11:34:15;100473.47;;;22.02;56.59
21290;BME280;10804;48.988;2.408;2023-07-31T11:36:53;100470.56;;;22.05;56.90
21290;BME280;10804;48.988;2.408;2023-07-31T11:39:21;100474.19;;;22.04;56.76
21290;BME280;10804;48.988;2.408;2023-07-31T11:41:49;100482.16;;;22.04;57.00
21290;BME280;10804;48.988;2.408;2023-07-31T11:44:16;100490.13;;;22.04;56.92
21290;BME280;10804;48.988;2.408;2023-07-31T11:46:43;100487.47;;;22.04;56.88
21290;BME280;10804;48.988;2.408;2023-07-31T11:49:11;100486.50;;;22.05;57.06
21290;BME280;10804;48.988;2.408;2023-07-31T11:51:38;100476.00;;;22.04;56.94
21290;BME280;10804;48.988;2.408;2023-07-31T11:54:07;100478.66;;;22.04;56.98
21290;BME280;10804;48.988;2.408;2023-07-31T11:56:34;100469.84;;;22.03;57.03
21290;BME280;10804;48.988;2.408;2023-07-31T11:59:02;100467.06;;;22.05;57.01
21290;BME280;10804;48.988;2.408;2023-07-31T12:01:32;100465.25;;;22.05;57.03
21290;BME280;10804;48.988;2.408;2023-07-31T12:03:59;100453.91;;;22.03;57.06
21290;BME280;10804;48.988;2.408;2023-07-31T12:06:32;100455.59;;;22.04;57.03
21290;BME280;10804;48.988;2.408;2023-07-31T12:09:02;100444.00;;;22.05;57.00
21290;BME280;10804;48.988;2.408;2023-07-31T12:11:31;100442.19;;;22.06;57.14
21290;BME280;10804;48.988;2.408;2023-07-31T12:13:58;100444.97;;;22.04;57.00
21290;BME280;10804;48.988;2.408;2023-07-31T12:16:26;100442.56;;;22.01;57.21
21290;BME280;10804;48.988;2.408;2023-07-31T12:18:54;100449.31;;;22.05;57.13
21290;BME280;10804;48.988;2.408;2023-07-31T12:21:21;100446.66;;;22.05;57.17
21290;BME280;10804;48.988;2.408;2023-07-31T12:23:48;100446.66;;;22.05;57.38
21290;BME280;10804;48.988;2.408;2023-07-31T12:26:19;100448.47;;;22.05;57.46
21290;BME280;10804;48.988;2.408;2023-07-31T12:28:49;100434.22;;;22.06;57.08
21290;BME280;10804;48.988;2.408;2023-07-31T12:31:18;100430.72;;;22.05;57.28
21290;BME280;10804;48.988;2.408;2023-07-31T12:33:47;100429.03;;;22.04;57.23
21290;BME280;10804;48.988;2.408;2023-07-31T12:36:16;100413.34;;;22.01;57.34
21290;BME280;10804;48.988;2.408;2023-07-31T12:38:44;100422.03;;;22.03;57.45
21290;BME280;10804;48.988;2.408;2023-07-31T12:41:12;100417.69;;;22.02;57.30
21290;BME280;10804;48.988;2.408;2023-07-31T12:43:41;100400.88;;;22.02;57.21
21290;BME280;10804;48.988;2.408;2023-07-31T12:46:10;100388.81;;;21.98;57.46
21290;BME280;10804;48.988;2.408;2023-07-31T12:48:38;100392.09;;;22.01;57.39
21290;BME280;10804;48.988;2.408;2023-07-31T12:51:06;100381.56;;;22.00;57.31
21290;BME280;10804;48.988;2.408;2023-07-31T12:53:33;100388.56;;;22.01;57.66
21290;BME280;10804;48.988;2.408;2023-07-31T12:56:01;100374.47;;;22.00;57.58
21290;BME280;10804;48.988;2.408;2023-07-31T12:58:29;100368.44;;;21.98;57.75